sensor_id;sensor_type;location;lat;lon;timestamp;P1;durP1;ratioP1;P2;durP2;ratioP2
42988;SDS011;28622;43.716;20.668;2023-02-28T00:00:45;13.65;;;7.82;;
42988;SDS011;28622;43.716;20.668;2023-02-28T00:03:11;18.45;;;8.45;;
42988;SDS011;28622;43.716;20.668;2023-02-28T00:05:37;14.07;;;7.35;;
42988;SDS011;28622;43.716;20.668;2023-02-28T00:08:02;15.43;;;8.45;;
42988;SDS011;28622;43.716;20.668;2023-02-28T00:10:29;16.73;;;7.93;;
42988;SDS011;28622;43.716;20.668;2023-02-28T00:12:59;17.60;;;7.75;;
42988;SDS011;28622;43.716;20.668;2023-02-28T00:15:26;17.55;;;7.80;;
42988;SDS011;28622;43.716;20.668;2023-02-28T00:17:52;13.00;;;7.45;;
42988;SDS011;28622;43.716;20.668;2023-02-28T00:20:18;20.73;;;7.80;;
42988;SDS011;28622;43.716;20.668;2023-02-28T00:22:45;17.58;;;8.52;;
42988;SDS011;28622;43.716;20.668;2023-02-28T00:25:14;20.63;;;7.75;;
42988;SDS011;28622;43.716;20.668;2023-02-28T00:27:42;15.43;;;8.07;;
42988;SDS011;28622;43.716;20.668;2023-02-28T00:30:09;16.25;;;8.18;;
42988;SDS011;28622;43.716;20.668;2023-02-28T00:32:37;21.80;;;7.85;;
42988;SDS011;28622;43.716;20.668;2023-02-28T00:35:03;18.27;;;8.30;;
42988;SDS011;28622;43.716;20.668;2023-02-28T00:37:30;14.27;;;8.05;;
42988;SDS011;28622;43.716;20.668;2023-02-28T00:39:56;18.50;;;8.73;;
42988;SDS011;28622;43.716;20.668;2023-02-28T00:42:22;22.05;;;8.55;;
42988;SDS011;28622;43.716;20.668;2023-02-28T00:44:48;15.00;;;7.20;;
42988;SDS011;28622;43.716;20.668;2023-02-28T00:47:14;19.42;;;9.32;;
42988;SDS011;28622;43.716;20.668;2023-02-28T00:49:40;18.50;;;9.10;;
42988;SDS011;28622;43.716;20.668;2023-02-28T00:52:06;17.73;;;8.60;;
42988;SDS011;28622;43.716;20.668;2023-02-28T00:54:32;15.85;;;7.13;;
42988;SDS011;28622;43.716;20.668;2023-02-28T00:56:59;16.50;;;8.05;;
42988;SDS011;28622;43.716;20.668;2023-02-28T00:59:25;16.65;;;8.20;;
42988;SDS011;28622;43.716;20.668;2023-02-28T01:01:50;17.85;;;7.95;;
42988;SDS011;28622;43.716;20.668;2023-02-28T01:04:16;22.50;;;9.20;;
42988;SDS011;28622;43.716;20.668;2023-02-28T01:06:42;19.35;;;8.75;;
42988;SDS011;28622;43.716;20.668;2023-02-28T01:09:08;21.65;;;9.32;;
42988;SDS011;28622;43.716;20.668;2023-02-28T01:11:35;23.05;;;9.13;;
42988;SDS011;28622;43.716;20.668;2023-02-28T01:14:01;25.95;;;8.20;;
42988;SDS011;28622;43.716;20.668;2023-02-28T01:16:27;20.10;;;9.25;;
42988;SDS011;28622;43.716;20.668;2023-02-28T01:18:53;16.83;;;7.93;;
42988;SDS011;28622;43.716;20.668;2023-02-28T01:21:19;19.55;;;9.05;;
42988;SDS011;28622;43.716;20.668;2023-02-28T01:23:46;20.80;;;10.93;;
42988;SDS011;28622;43.716;20.668;2023-02-28T01:26:13;21.65;;;9.68;;
42988;SDS011;28622;43.716;20.668;2023-02-28T01:28:44;22.88;;;8.50;;
42988;SDS011;28622;43.716;20.668;2023-02-28T01:31:11;15.45;;;8.43;;
42988;SDS011;28622;43.716;20.668;2023-02-28T01:33:37;17.67;;;8.02;;
42988;SDS011;28622;43.716;20.668;2023-02-28T01:36:04;19.73;;;9.55;;
42988;SDS011;28622;43.716;20.668;2023-02-28T01:38:33;26.85;;;9.90;;
42988;SDS011;28622;43.716;20.668;2023-02-28T01:40:59;18.50;;;9.23;;
42988;SDS011;28622;43.716;20.668;2023-02-28T01:46:13;18.08;;;8.20;;
42988;SDS011;28622;43.716;20.668;2023-02-28T01:48:40;19.40;;;9.27;;
42988;SDS011;28622;43.716;20.668;2023-02-28T01:51:37;19.08;;;8.80;;
42988;SDS011;28622;43.716;20.668;2023-02-28T01:54:11;16.52;;;7.90;;
42988;SDS011;28622;43.716;20.668;2023-02-28T01:56:45;18.83;;;8.55;;
42988;SDS011;28622;43.716;20.668;2023-02-28T01:59:18;18.05;;;8.82;;
42988;SDS011;28622;43.716;20.668;2023-02-28T02:02:10;21.20;;;7.63;;
42988;SDS011;28622;43.716;20.668;2023-02-28T02:04:40;21.77;;;8.13;;
42988;SDS011;28622;43.716;20.668;2023-02-28T02:07:15;13.43;;;6.93;;
42988;SDS011;28622;43.716;20.668;2023-02-28T02:09:41;18.33;;;8.05;;
42988;SDS011;28622;43.716;20.668;2023-02-28T02:12:50;22.92;;;8.05;;
42988;SDS011;28622;43.716;20.668;2023-02-28T02:15:05;20.00;;;9.10;;
42988;SDS011;28622;43.716;20.668;2023-02-28T02:17:35;19.42;;;9.57;;
42988;SDS011;28622;43.716;20.668;2023-02-28T02:26:15;21.08;;;8.55;;
42988;SDS011;28622;43.716;20.668;2023-02-28T02:32:07;22.27;;;8.75;;
42988;SDS011;28622;43.716;20.668;2023-02-28T02:40:19;29.38;;;12.13;;
42988;SDS011;28622;43.716;20.668;2023-02-28T02:42:49;24.35;;;11.55;;
42988;SDS011;28622;43.716;20.668;2023-02-28T02:47:54;24.08;;;10.85;;
42988;SDS011;28622;43.716;20.668;2023-02-28T02:50:25;20.08;;;9.07;;
42988;SDS011;28622;43.716;20.668;2023-02-28T02:52:56;25.05;;;11.50;;
42988;SDS011;28622;43.716;20.668;2023-02-28T02:55:25;26.73;;;11.20;;
42988;SDS011;28622;43.716;20.668;2023-02-28T02:57:53;25.35;;;10.65;;
42988;SDS011;28622;43.716;20.668;2023-02-28T03:00:24;28.27;;;12.05;;
42988;SDS011;28622;43.716;20.668;2023-02-28T03:05:25;32.47;;;11.13;;
42988;SDS011;28622;43.716;20.668;2023-02-28T03:07:54;18.98;;;9.25;;
42988;SDS011;28622;43.716;20.668;2023-02-28T03:21:48;25.20;;;10.25;;
42988;SDS011;28622;43.716;20.668;2023-02-28T03:27:29;21.60;;;9.27;;
42988;SDS011;28622;43.716;20.668;2023-02-28T03:30:02;20.02;;;8.90;;
42988;SDS011;28622;43.716;20.668;2023-02-28T03:32:38;17.50;;;9.00;;
42988;SDS011;28622;43.716;20.668;2023-02-28T03:35:25;27.00;;;9.40;;
42988;SDS011;28622;43.716;20.668;2023-02-28T03:38:31;20.15;;;9.18;;
42988;SDS011;28622;43.716;20.668;2023-02-28T03:43:58;27.98;;;11.57;;
42988;SDS011;28622;43.716;20.668;2023-02-28T03:46:28;28.42;;;11.02;;
42988;SDS011;28622;43.716;20.668;2023-02-28T03:49:20;19.77;;;9.07;;
42988;SDS011;28622;43.716;20.668;2023-02-28T03:51:48;21.48;;;10.18;;
42988;SDS011;28622;43.716;20.668;2023-02-28T03:54:18;21.80;;;9.88;;
42988;SDS011;28622;43.716;20.668;2023-02-28T03:56:50;31.90;;;12.40;;
42988;SDS011;28622;43.716;20.668;2023-02-28T03:59:26;32.50;;;15.45;;
42988;SDS011;28622;43.716;20.668;2023-02-28T04:01:53;32.70;;;15.30;;
42988;SDS011;28622;43.716;20.668;2023-02-28T04:04:20;35.10;;;15.05;;
42988;SDS011;28622;43.716;20.668;2023-02-28T04:06:49;20.95;;;10.25;;
42988;SDS011;28622;43.716;20.668;2023-02-28T04:09:15;27.70;;;11.80;;
42988;SDS011;28622;43.716;20.668;2023-02-28T04:11:42;26.98;;;10.32;;
42988;SDS011;28622;43.716;20.668;2023-02-28T04:14:10;23.67;;;10.93;;
42988;SDS011;28622;43.716;20.668;2023-02-28T04:16:38;22.40;;;10.13;;
42988;SDS011;28622;43.716;20.668;2023-02-28T04:19:06;25.48;;;11.30;;
42988;SDS011;28622;43.716;20.668;2023-02-28T04:21:34;21.02;;;11.02;;
42988;SDS011;28622;43.716;20.668;2023-02-28T04:24:01;24.48;;;10.52;;
42988;SDS011;28622;43.716;20.668;2023-02-28T04:26:31;28.58;;;12.27;;
42988;SDS011;28622;43.716;20.668;2023-02-28T04:29:02;27.98;;;10.18;;
42988;SDS011;28622;43.716;20.668;2023-02-28T04:31:29;26.10;;;10.88;;
42988;SDS011;28622;43.716;20.668;2023-02-28T04:33:55;28.17;;;9.73;;
42988;SDS011;28622;43.716;20.668;2023-02-28T04:36:21;24.65;;;10.00;;
42988;SDS011;28622;43.716;20.668;2023-02-28T04:38:48;25.20;;;10.85;;
42988;SDS011;28622;43.716;20.668;2023-02-28T04:41:14;25.45;;;10.40;;
42988;SDS011;28622;43.716;20.668;2023-02-28T04:43:40;26.08;;;9.23;;
42988;SDS011;28622;43.716;20.668;2023-02-28T04:46:07;24.20;;;10.00;;
42988;SDS011;28622;43.716;20.668;2023-02-28T04:48:34;23.00;;;9.80;;
42988;SDS011;28622;43.716;20.668;2023-02-28T04:51:06;23.52;;;9.13;;
42988;SDS011;28622;43.716;20.668;2023-02-28T04:53:34;33.05;;;16.45;;
42988;SDS011;28622;43.716;20.668;2023-02-28T04:56:01;32.97;;;12.15;;
42988;SDS011;28622;43.716;20.668;2023-02-28T04:58:26;22.52;;;10.85;;
42988;SDS011;28622;43.716;20.668;2023-02-28T05:00:53;22.20;;;9.40;;
42988;SDS011;28622;43.716;20.668;2023-02-28T05:03:19;21.38;;;9.80;;
42988;SDS011;28622;43.716;20.668;2023-02-28T05:05:48;25.75;;;11.15;;
42988;SDS011;28622;43.716;20.668;2023-02-28T05:08:14;31.50;;;10.95;;
42988;SDS011;28622;43.716;20.668;2023-02-28T05:10:39;19.77;;;9.15;;
42988;SDS011;28622;43.716;20.668;2023-02-28T05:13:05;22.23;;;9.52;;
42988;SDS011;28622;43.716;20.668;2023-02-28T05:15:31;23.00;;;9.35;;
42988;SDS011;28622;43.716;20.668;2023-02-28T05:17:57;29.75;;;10.80;;
42988;SDS011;28622;43.716;20.668;2023-02-28T05:20:22;30.05;;;10.23;;
42988;SDS011;28622;43.716;20.668;2023-02-28T05:22:49;30.35;;;10.68;;
42988;SDS011;28622;43.716;20.668;2023-02-28T05:25:19;25.30;;;9.75;;
42988;SDS011;28622;43.716;20.668;2023-02-28T05:27:47;26.60;;;10.25;;
42988;SDS011;28622;43.716;20.668;2023-02-28T05:30:13;22.48;;;10.30;;
42988;SDS011;28622;43.716;20.668;2023-02-28T05:32:39;23.15;;;10.43;;
42988;SDS011;28622;43.716;20.668;2023-02-28T05:35:09;22.17;;;10.68;;
42988;SDS011;28622;43.716;20.668;2023-02-28T05:37:36;25.90;;;10.80;;
42988;SDS011;28622;43.716;20.668;2023-02-28T05:40:03;27.75;;;10.75;;
42988;SDS011;28622;43.716;20.668;2023-02-28T05:42:36;22.48;;;9.93;;
42988;SDS011;28622;43.716;20.668;2023-02-28T05:45:03;27.05;;;11.10;;
42988;SDS011;28622;43.716;20.668;2023-02-28T05:47:29;26.25;;;10.32;;
42988;SDS011;28622;43.716;20.668;2023-02-28T05:49:55;23.20;;;9.10;;
42988;SDS011;28622;43.716;20.668;2023-02-28T05:52:21;23.27;;;12.02;;
42988;SDS011;28622;43.716;20.668;2023-02-28T05:54:47;18.98;;;9.55;;
42988;SDS011;28622;43.716;20.668;2023-02-28T05:57:13;25.55;;;9.82;;
42988;SDS011;28622;43.716;20.668;2023-02-28T05:59:38;25.27;;;10.57;;
42988;SDS011;28622;43.716;20.668;2023-02-28T06:02:05;20.70;;;9.60;;
42988;SDS011;28622;43.716;20.668;2023-02-28T06:04:35;28.85;;;12.02;;
42988;SDS011;28622;43.716;20.668;2023-02-28T06:07:01;23.73;;;9.63;;
42988;SDS011;28622;43.716;20.668;2023-02-28T06:09:28;25.58;;;10.75;;
42988;SDS011;28622;43.716;20.668;2023-02-28T06:11:54;26.20;;;10.23;;
42988;SDS011;28622;43.716;20.668;2023-02-28T06:14:22;22.90;;;8.63;;
42988;SDS011;28622;43.716;20.668;2023-02-28T06:16:48;22.13;;;10.00;;
42988;SDS011;28622;43.716;20.668;2023-02-28T06:19:13;20.48;;;8.90;;
42988;SDS011;28622;43.716;20.668;2023-02-28T06:21:40;18.63;;;7.45;;
42988;SDS011;28622;43.716;20.668;2023-02-28T06:24:06;20.55;;;9.48;;
42988;SDS011;28622;43.716;20.668;2023-02-28T06:26:32;17.23;;;7.70;;
42988;SDS011;28622;43.716;20.668;2023-02-28T06:28:58;25.90;;;10.85;;
42988;SDS011;28622;43.716;20.668;2023-02-28T06:31:26;25.83;;;10.00;;
42988;SDS011;28622;43.716;20.668;2023-02-28T06:33:53;22.95;;;9.18;;
42988;SDS011;28622;43.716;20.668;2023-02-28T06:36:20;23.30;;;9.05;;
42988;SDS011;28622;43.716;20.668;2023-02-28T06:38:48;20.50;;;7.45;;
42988;SDS011;28622;43.716;20.668;2023-02-28T06:41:20;18.73;;;8.27;;
42988;SDS011;28622;43.716;20.668;2023-02-28T06:43:50;20.05;;;9.18;;
42988;SDS011;28622;43.716;20.668;2023-02-28T06:46:16;19.30;;;8.90;;
42988;SDS011;28622;43.716;20.668;2023-02-28T06:48:43;16.67;;;8.95;;
42988;SDS011;28622;43.716;20.668;2023-02-28T06:51:10;25.42;;;9.93;;
42988;SDS011;28622;43.716;20.668;2023-02-28T06:53:39;22.05;;;8.18;;
42988;SDS011;28622;43.716;20.668;2023-02-28T06:56:05;22.90;;;9.10;;
42988;SDS011;28622;43.716;20.668;2023-02-28T06:58:33;22.35;;;7.68;;
42988;SDS011;28622;43.716;20.668;2023-02-28T07:00:59;25.02;;;8.90;;
42988;SDS011;28622;43.716;20.668;2023-02-28T07:03:25;23.52;;;9.73;;
42988;SDS011;28622;43.716;20.668;2023-02-28T07:05:51;20.33;;;8.82;;
42988;SDS011;28622;43.716;20.668;2023-02-28T07:08:17;19.20;;;8.55;;
42988;SDS011;28622;43.716;20.668;2023-02-28T07:10:43;20.67;;;10.25;;
42988;SDS011;28622;43.716;20.668;2023-02-28T07:13:09;29.38;;;9.63;;
42988;SDS011;28622;43.716;20.668;2023-02-28T07:15:36;18.48;;;9.98;;
42988;SDS011;28622;43.716;20.668;2023-02-28T07:18:02;23.95;;;10.00;;
42988;SDS011;28622;43.716;20.668;2023-02-28T07:20:28;18.80;;;9.50;;
42988;SDS011;28622;43.716;20.668;2023-02-28T07:22:55;25.45;;;9.57;;
42988;SDS011;28622;43.716;20.668;2023-02-28T07:25:24;22.52;;;8.38;;
42988;SDS011;28622;43.716;20.668;2023-02-28T07:27:51;19.83;;;10.20;;
42988;SDS011;28622;43.716;20.668;2023-02-28T07:30:18;28.88;;;12.07;;
42988;SDS011;28622;43.716;20.668;2023-02-28T07:32:44;21.23;;;9.70;;
42988;SDS011;28622;43.716;20.668;2023-02-28T07:35:10;22.52;;;9.05;;
42988;SDS011;28622;43.716;20.668;2023-02-28T07:37:36;23.05;;;9.68;;
42988;SDS011;28622;43.716;20.668;2023-02-28T07:40:03;24.48;;;11.68;;
42988;SDS011;28622;43.716;20.668;2023-02-28T07:42:36;24.42;;;10.77;;
42988;SDS011;28622;43.716;20.668;2023-02-28T07:45:03;20.73;;;9.32;;
42988;SDS011;28622;43.716;20.668;2023-02-28T07:47:30;21.10;;;8.68;;
42988;SDS011;28622;43.716;20.668;2023-02-28T07:49:57;20.02;;;9.13;;
42988;SDS011;28622;43.716;20.668;2023-02-28T07:52:23;16.80;;;8.32;;
42988;SDS011;28622;43.716;20.668;2023-02-28T07:54:49;27.13;;;10.00;;
42988;SDS011;28622;43.716;20.668;2023-02-28T07:57:18;25.20;;;10.00;;
42988;SDS011;28622;43.716;20.668;2023-02-28T07:59:44;18.58;;;8.93;;
42988;SDS011;28622;43.716;20.668;2023-02-28T08:02:13;21.95;;;10.07;;
42988;SDS011;28622;43.716;20.668;2023-02-28T08:04:40;22.30;;;9.98;;
42988;SDS011;28622;43.716;20.668;2023-02-28T08:07:06;22.75;;;10.02;;
42988;SDS011;28622;43.716;20.668;2023-02-28T08:09:32;23.08;;;11.27;;
42988;SDS011;28622;43.716;20.668;2023-02-28T08:11:59;16.10;;;9.00;;
42988;SDS011;28622;43.716;20.668;2023-02-28T08:14:25;21.40;;;9.02;;
42988;SDS011;28622;43.716;20.668;2023-02-28T08:16:51;25.20;;;10.15;;
42988;SDS011;28622;43.716;20.668;2023-02-28T08:19:17;21.35;;;10.73;;
42988;SDS011;28622;43.716;20.668;2023-02-28T08:21:42;20.27;;;10.00;;
42988;SDS011;28622;43.716;20.668;2023-02-28T08:24:08;24.75;;;9.88;;
42988;SDS011;28622;43.716;20.668;2023-02-28T08:26:34;26.70;;;9.25;;
42988;SDS011;28622;43.716;20.668;2023-02-28T08:28:59;26.13;;;11.30;;
42988;SDS011;28622;43.716;20.668;2023-02-28T08:31:25;22.40;;;10.10;;
42988;SDS011;28622;43.716;20.668;2023-02-28T08:33:51;30.83;;;12.15;;
42988;SDS011;28622;43.716;20.668;2023-02-28T08:36:18;21.17;;;11.15;;
42988;SDS011;28622;43.716;20.668;2023-02-28T08:38:44;22.40;;;10.43;;
42988;SDS011;28622;43.716;20.668;2023-02-28T08:41:11;24.42;;;10.90;;
42988;SDS011;28622;43.716;20.668;2023-02-28T08:43:38;22.13;;;9.68;;
42988;SDS011;28622;43.716;20.668;2023-02-28T08:46:05;21.48;;;11.18;;
42988;SDS011;28622;43.716;20.668;2023-02-28T08:48:32;25.08;;;10.52;;
42988;SDS011;28622;43.716;20.668;2023-02-28T08:51:10;22.17;;;9.45;;
42988;SDS011;28622;43.716;20.668;2023-02-28T08:53:38;20.92;;;8.43;;
42988;SDS011;28622;43.716;20.668;2023-02-28T08:56:06;18.55;;;8.27;;
42988;SDS011;28622;43.716;20.668;2023-02-28T08:58:33;21.98;;;8.60;;
42988;SDS011;28622;43.716;20.668;2023-02-28T09:00:59;26.35;;;9.10;;
42988;SDS011;28622;43.716;20.668;2023-02-28T09:03:31;18.05;;;8.80;;
42988;SDS011;28622;43.716;20.668;2023-02-28T09:05:58;20.60;;;9.68;;
42988;SDS011;28622;43.716;20.668;2023-02-28T09:08:26;19.80;;;8.38;;
42988;SDS011;28622;43.716;20.668;2023-02-28T09:10:53;24.55;;;8.65;;
42988;SDS011;28622;43.716;20.668;2023-02-28T09:13:22;19.55;;;8.15;;
42988;SDS011;28622;43.716;20.668;2023-02-28T09:15:48;16.27;;;8.02;;
42988;SDS011;28622;43.716;20.668;2023-02-28T09:18:17;17.58;;;7.45;;
42988;SDS011;28622;43.716;20.668;2023-02-28T09:20:43;19.10;;;9.30;;
42988;SDS011;28622;43.716;20.668;2023-02-28T09:23:09;15.57;;;7.28;;
42988;SDS011;28622;43.716;20.668;2023-02-28T09:25:37;21.10;;;8.13;;
42988;SDS011;28622;43.716;20.668;2023-02-28T09:28:03;22.00;;;8.88;;
42988;SDS011;28622;43.716;20.668;2023-02-28T09:30:29;17.02;;;8.23;;
42988;SDS011;28622;43.716;20.668;2023-02-28T09:32:55;20.25;;;8.07;;
42988;SDS011;28622;43.716;20.668;2023-02-28T09:35:22;16.85;;;7.43;;
42988;SDS011;28622;43.716;20.668;2023-02-28T09:37:50;25.45;;;8.60;;
42988;SDS011;28622;43.716;20.668;2023-02-28T09:40:20;35.17;;;14.90;;
42988;SDS011;28622;43.716;20.668;2023-02-28T09:42:49;24.40;;;10.63;;
42988;SDS011;28622;43.716;20.668;2023-02-28T09:45:28;15.57;;;7.55;;
42988;SDS011;28622;43.716;20.668;2023-02-28T09:48:11;14.85;;;8.60;;
42988;SDS011;28622;43.716;20.668;2023-02-28T09:50:51;20.00;;;9.23;;
42988;SDS011;28622;43.716;20.668;2023-02-28T09:53:31;19.48;;;8.98;;
42988;SDS011;28622;43.716;20.668;2023-02-28T09:56:07;20.02;;;9.20;;
42988;SDS011;28622;43.716;20.668;2023-02-28T10:07:07;20.08;;;9.32;;
42988;SDS011;28622;43.716;20.668;2023-02-28T10:09:45;12.35;;;6.95;;
42988;SDS011;28622;43.716;20.668;2023-02-28T10:12:14;20.85;;;8.10;;
42988;SDS011;28622;43.716;20.668;2023-02-28T10:14:44;16.38;;;7.72;;
42988;SDS011;28622;43.716;20.668;2023-02-28T10:17:30;19.45;;;8.27;;
42988;SDS011;28622;43.716;20.668;2023-02-28T10:20:17;21.33;;;8.27;;
42988;SDS011;28622;43.716;20.668;2023-02-28T10:22:56;18.70;;;8.63;;
42988;SDS011;28622;43.716;20.668;2023-02-28T10:25:33;16.38;;;7.75;;
42988;SDS011;28622;43.716;20.668;2023-02-28T10:28:04;18.42;;;8.30;;
42988;SDS011;28622;43.716;20.668;2023-02-28T10:30:36;41.40;;;16.95;;
42988;SDS011;28622;43.716;20.668;2023-02-28T10:33:08;35.92;;;15.75;;
42988;SDS011;28622;43.716;20.668;2023-02-28T10:35:43;24.05;;;10.23;;
42988;SDS011;28622;43.716;20.668;2023-02-28T10:38:14;35.85;;;14.75;;
42988;SDS011;28622;43.716;20.668;2023-02-28T10:40:44;23.80;;;10.57;;
42988;SDS011;28622;43.716;20.668;2023-02-28T10:45:39;22.30;;;10.15;;
42988;SDS011;28622;43.716;20.668;2023-02-28T10:56:23;25.27;;;9.45;;
42988;SDS011;28622;43.716;20.668;2023-02-28T11:04:00;24.90;;;10.75;;
42988;SDS011;28622;43.716;20.668;2023-02-28T11:06:26;18.30;;;8.32;;
42988;SDS011;28622;43.716;20.668;2023-02-28T11:08:57;21.55;;;8.38;;
42988;SDS011;28622;43.716;20.668;2023-02-28T11:11:25;17.52;;;7.95;;
42988;SDS011;28622;43.716;20.668;2023-02-28T11:13:54;18.58;;;9.10;;
42988;SDS011;28622;43.716;20.668;2023-02-28T11:16:31;20.65;;;9.27;;
42988;SDS011;28622;43.716;20.668;2023-02-28T11:19:02;24.83;;;12.35;;
42988;SDS011;28622;43.716;20.668;2023-02-28T11:21:35;22.85;;;10.40;;
42988;SDS011;28622;43.716;20.668;2023-02-28T11:24:07;23.70;;;11.75;;
42988;SDS011;28622;43.716;20.668;2023-02-28T11:26:51;22.70;;;10.30;;
42988;SDS011;28622;43.716;20.668;2023-02-28T11:34:35;42.13;;;19.13;;
42988;SDS011;28622;43.716;20.668;2023-02-28T11:37:02;37.50;;;17.00;;
42988;SDS011;28622;43.716;20.668;2023-02-28T11:56:15;21.20;;;8.73;;
42988;SDS011;28622;43.716;20.668;2023-02-28T12:07:11;22.77;;;11.65;;
42988;SDS011;28622;43.716;20.668;2023-02-28T12:15:55;27.77;;;11.93;;
42988;SDS011;28622;43.716;20.668;2023-02-28T12:26:31;15.23;;;8.13;;
42988;SDS011;28622;43.716;20.668;2023-02-28T12:32:09;19.58;;;8.63;;
42988;SDS011;28622;43.716;20.668;2023-02-28T12:34:38;14.75;;;8.27;;
42988;SDS011;28622;43.716;20.668;2023-02-28T12:37:16;24.17;;;9.27;;
42988;SDS011;28622;43.716;20.668;2023-02-28T12:39:49;14.75;;;7.15;;
42988;SDS011;28622;43.716;20.668;2023-02-28T12:43:02;15.70;;;7.00;;
42988;SDS011;28622;43.716;20.668;2023-02-28T12:48:13;13.93;;;7.22;;
42988;SDS011;28622;43.716;20.668;2023-02-28T12:50:45;16.15;;;8.23;;
42988;SDS011;28622;43.716;20.668;2023-02-28T12:53:18;15.40;;;8.60;;
42988;SDS011;28622;43.716;20.668;2023-02-28T12:59:05;15.35;;;7.90;;
42988;SDS011;28622;43.716;20.668;2023-02-28T13:04:44;15.50;;;6.80;;
42988;SDS011;28622;43.716;20.668;2023-02-28T13:10:09;19.35;;;8.55;;
42988;SDS011;28622;43.716;20.668;2023-02-28T13:12:35;17.70;;;8.15;;
42988;SDS011;28622;43.716;20.668;2023-02-28T13:15:08;16.20;;;8.20;;
42988;SDS011;28622;43.716;20.668;2023-02-28T13:17:50;13.38;;;6.90;;
42988;SDS011;28622;43.716;20.668;2023-02-28T13:20:18;16.85;;;7.10;;
42988;SDS011;28622;43.716;20.668;2023-02-28T13:22:56;12.63;;;7.22;;
42988;SDS011;28622;43.716;20.668;2023-02-28T13:28:11;16.02;;;6.57;;
42988;SDS011;28622;43.716;20.668;2023-02-28T13:33:27;14.98;;;7.82;;
42988;SDS011;28622;43.716;20.668;2023-02-28T13:38:37;12.68;;;7.65;;
42988;SDS011;28622;43.716;20.668;2023-02-28T13:46:36;11.13;;;6.65;;
42988;SDS011;28622;43.716;20.668;2023-02-28T13:54:31;16.95;;;9.27;;
42988;SDS011;28622;43.716;20.668;2023-02-28T14:05:34;11.90;;;5.85;;
42988;SDS011;28622;43.716;20.668;2023-02-28T14:08:06;11.35;;;5.68;;
42988;SDS011;28622;43.716;20.668;2023-02-28T14:10:46;10.15;;;5.72;;
42988;SDS011;28622;43.716;20.668;2023-02-28T14:18:25;10.13;;;6.68;;
42988;SDS011;28622;43.716;20.668;2023-02-28T14:21:08;10.90;;;6.63;;
42988;SDS011;28622;43.716;20.668;2023-02-28T14:27:21;13.02;;;7.35;;
42988;SDS011;28622;43.716;20.668;2023-02-28T14:29:43;10.65;;;6.28;;
42988;SDS011;28622;43.716;20.668;2023-02-28T14:38:28;11.02;;;6.45;;
42988;SDS011;28622;43.716;20.668;2023-02-28T14:41:38;14.20;;;6.63;;
42988;SDS011;28622;43.716;20.668;2023-02-28T14:44:37;10.27;;;5.43;;
42988;SDS011;28622;43.716;20.668;2023-02-28T14:47:00;10.15;;;5.70;;
42988;SDS011;28622;43.716;20.668;2023-02-28T14:49:34;9.77;;;4.70;;
42988;SDS011;28622;43.716;20.668;2023-02-28T14:54:35;10.52;;;5.32;;
42988;SDS011;28622;43.716;20.668;2023-02-28T14:57:02;19.05;;;11.63;;
42988;SDS011;28622;43.716;20.668;2023-02-28T14:59:30;13.50;;;6.32;;
42988;SDS011;28622;43.716;20.668;2023-02-28T15:02:17;11.25;;;6.50;;
42988;SDS011;28622;43.716;20.668;2023-02-28T15:04:54;9.18;;;5.47;;
42988;SDS011;28622;43.716;20.668;2023-02-28T15:07:22;12.48;;;5.93;;
42988;SDS011;28622;43.716;20.668;2023-02-28T15:10:10;12.88;;;5.68;;
42988;SDS011;28622;43.716;20.668;2023-02-28T15:12:39;9.90;;;5.78;;
42988;SDS011;28622;43.716;20.668;2023-02-28T15:15:14;10.50;;;5.35;;
42988;SDS011;28622;43.716;20.668;2023-02-28T15:17:42;11.23;;;6.47;;
42988;SDS011;28622;43.716;20.668;2023-02-28T15:20:14;11.80;;;7.13;;
42988;SDS011;28622;43.716;20.668;2023-02-28T15:22:41;14.93;;;9.60;;
42988;SDS011;28622;43.716;20.668;2023-02-28T15:25:09;12.13;;;6.90;;
42988;SDS011;28622;43.716;20.668;2023-02-28T15:27:42;10.65;;;6.38;;
42988;SDS011;28622;43.716;20.668;2023-02-28T15:30:14;10.48;;;6.53;;
42988;SDS011;28622;43.716;20.668;2023-02-28T15:32:43;12.10;;;6.18;;
42988;SDS011;28622;43.716;20.668;2023-02-28T15:37:48;16.27;;;8.30;;
42988;SDS011;28622;43.716;20.668;2023-02-28T15:40:31;13.73;;;6.97;;
42988;SDS011;28622;43.716;20.668;2023-02-28T15:43:06;12.48;;;7.25;;
42988;SDS011;28622;43.716;20.668;2023-02-28T15:45:51;18.08;;;10.20;;
42988;SDS011;28622;43.716;20.668;2023-02-28T15:50:43;14.10;;;7.90;;
42988;SDS011;28622;43.716;20.668;2023-02-28T15:53:15;9.95;;;5.70;;
42988;SDS011;28622;43.716;20.668;2023-02-28T15:58:10;10.75;;;6.60;;
42988;SDS011;28622;43.716;20.668;2023-02-28T16:00:38;9.63;;;6.97;;
42988;SDS011;28622;43.716;20.668;2023-02-28T16:03:23;14.00;;;8.25;;
42988;SDS011;28622;43.716;20.668;2023-02-28T16:06:09;14.13;;;6.53;;
42988;SDS011;28622;43.716;20.668;2023-02-28T16:08:41;13.55;;;7.88;;
42988;SDS011;28622;43.716;20.668;2023-02-28T16:11:08;12.77;;;7.50;;
42988;SDS011;28622;43.716;20.668;2023-02-28T16:13:35;15.07;;;8.07;;
42988;SDS011;28622;43.716;20.668;2023-02-28T16:16:01;18.48;;;9.25;;
42988;SDS011;28622;43.716;20.668;2023-02-28T16:18:27;13.77;;;8.13;;
42988;SDS011;28622;43.716;20.668;2023-02-28T16:20:53;13.63;;;8.20;;
42988;SDS011;28622;43.716;20.668;2023-02-28T16:23:19;10.75;;;6.57;;
42988;SDS011;28622;43.716;20.668;2023-02-28T16:25:45;11.57;;;5.22;;
42988;SDS011;28622;43.716;20.668;2023-02-28T16:28:24;14.73;;;8.80;;
42988;SDS011;28622;43.716;20.668;2023-02-28T16:30:58;11.63;;;6.65;;
42988;SDS011;28622;43.716;20.668;2023-02-28T16:33:27;12.05;;;6.57;;
42988;SDS011;28622;43.716;20.668;2023-02-28T16:35:54;6.90;;;5.38;;
42988;SDS011;28622;43.716;20.668;2023-02-28T16:38:19;13.23;;;7.18;;
42988;SDS011;28622;43.716;20.668;2023-02-28T16:40:46;9.25;;;5.47;;
42988;SDS011;28622;43.716;20.668;2023-02-28T16:43:18;9.60;;;5.25;;
42988;SDS011;28622;43.716;20.668;2023-02-28T16:45:47;10.48;;;6.00;;
42988;SDS011;28622;43.716;20.668;2023-02-28T16:48:13;13.10;;;5.88;;
42988;SDS011;28622;43.716;20.668;2023-02-28T16:50:41;10.48;;;6.28;;
42988;SDS011;28622;43.716;20.668;2023-02-28T16:53:08;15.45;;;6.78;;
42988;SDS011;28622;43.716;20.668;2023-02-28T16:55:34;12.25;;;6.78;;
42988;SDS011;28622;43.716;20.668;2023-02-28T16:58:01;10.65;;;6.28;;
42988;SDS011;28622;43.716;20.668;2023-02-28T17:00:28;14.43;;;8.25;;
42988;SDS011;28622;43.716;20.668;2023-02-28T17:02:56;13.98;;;6.50;;
42988;SDS011;28622;43.716;20.668;2023-02-28T17:05:24;9.80;;;5.47;;
42988;SDS011;28622;43.716;20.668;2023-02-28T17:07:50;11.25;;;5.93;;
42988;SDS011;28622;43.716;20.668;2023-02-28T17:10:20;11.13;;;7.45;;
42988;SDS011;28622;43.716;20.668;2023-02-28T17:12:48;13.70;;;7.53;;
42988;SDS011;28622;43.716;20.668;2023-02-28T17:15:14;15.50;;;9.70;;
42988;SDS011;28622;43.716;20.668;2023-02-28T17:17:42;10.48;;;6.15;;
42988;SDS011;28622;43.716;20.668;2023-02-28T17:20:15;17.77;;;7.30;;
42988;SDS011;28622;43.716;20.668;2023-02-28T17:22:42;13.10;;;7.63;;
42988;SDS011;28622;43.716;20.668;2023-02-28T17:25:09;10.35;;;6.10;;
42988;SDS011;28622;43.716;20.668;2023-02-28T17:27:35;11.98;;;5.55;;
42988;SDS011;28622;43.716;20.668;2023-02-28T17:30:01;12.32;;;7.07;;